sensor_id;sensor_type;location;lat;lon;timestamp;P1;durP1;ratioP1;P2;durP2;ratioP2
60700;SDS011;46541;49.894;10.886;2023-08-06T00:01:34;6.35;;;2.42;;
60700;SDS011;46541;49.894;10.886;2023-08-06T00:04:01;2.55;;;2.33;;
60700;SDS011;46541;49.894;10.886;2023-08-06T00:06:28;3.13;;;2.38;;
60700;SDS011;46541;49.894;10.886;2023-08-06T00:08:55;3.33;;;2.47;;
60700;SDS011;46541;49.894;10.886;2023-08-06T00:11:22;8.48;;;2.10;;
60700;SDS011;46541;49.894;10.886;2023-08-06T00:13:49;5.07;;;2.63;;
60700;SDS011;46541;49.894;10.886;2023-08-06T00:16:15;1.88;;;1.65;;
60700;SDS011;46541;49.894;10.886;2023-08-06T00:18:42;4.10;;;2.13;;
60700;SDS011;46541;49.894;10.886;2023-08-06T00:21:09;5.68;;;2.42;;
60700;SDS011;46541;49.894;10.886;2023-08-06T00:23:39;3.80;;;2.38;;
60700;SDS011;46541;49.894;10.886;2023-08-06T00:26:06;3.80;;;2.50;;
60700;SDS011;46541;49.894;10.886;2023-08-06T00:28:33;4.32;;;2.78;;
60700;SDS011;46541;49.894;10.886;2023-08-06T00:31:00;4.10;;;2.03;;
60700;SDS011;46541;49.894;10.886;2023-08-06T00:33:27;5.78;;;2.90;;
60700;SDS011;46541;49.894;10.886;2023-08-06T00:35:53;3.92;;;2.63;;
60700;SDS011;46541;49.894;10.886;2023-08-06T00:38:20;9.38;;;2.78;;
60700;SDS011;46541;49.894;10.886;2023-08-06T00:40:47;15.02;;;3.40;;
60700;SDS011;46541;49.894;10.886;2023-08-06T00:43:14;12.43;;;4.35;;
60700;SDS011;46541;49.894;10.886;2023-08-06T00:45:43;6.38;;;4.47;;
60700;SDS011;46541;49.894;10.886;2023-08-06T00:48:10;6.45;;;3.80;;
60700;SDS011;46541;49.894;10.886;2023-08-06T00:50:37;8.05;;;3.70;;
60700;SDS011;46541;49.894;10.886;2023-08-06T00:53:04;7.50;;;4.13;;
60700;SDS011;46541;49.894;10.886;2023-08-06T00:55:30;5.15;;;3.67;;
60700;SDS011;46541;49.894;10.886;2023-08-06T00:57:57;4.57;;;3.38;;
60700;SDS011;46541;49.894;10.886;2023-08-06T01:00:24;4.30;;;3.30;;
60700;SDS011;46541;49.894;10.886;2023-08-06T01:02:52;4.40;;;3.20;;
60700;SDS011;46541;49.894;10.886;2023-08-06T01:05:20;4.25;;;3.03;;
60700;SDS011;46541;49.894;10.886;2023-08-06T01:13:33;5.88;;;3.03;;
60700;SDS011;46541;49.894;10.886;2023-08-06T01:16:08;4.47;;;3.20;;
60700;SDS011;46541;49.894;10.886;2023-08-06T01:18:36;4.85;;;3.08;;
60700;SDS011;46541;49.894;10.886;2023-08-06T01:21:05;4.00;;;2.83;;
60700;SDS011;46541;49.894;10.886;2023-08-06T01:23:31;3.33;;;2.92;;
60700;SDS011;46541;49.894;10.886;2023-08-06T01:30:56;3.45;;;2.53;;
60700;SDS011;46541;49.894;10.886;2023-08-06T01:33:28;5.18;;;2.70;;
60700;SDS011;46541;49.894;10.886;2023-08-06T01:35:58;9.23;;;4.10;;
60700;SDS011;46541;49.894;10.886;2023-08-06T01:38:25;4.40;;;2.80;;
60700;SDS011;46541;49.894;10.886;2023-08-06T01:40:54;3.50;;;3.20;;
60700;SDS011;46541;49.894;10.886;2023-08-06T01:43:21;6.90;;;4.63;;
60700;SDS011;46541;49.894;10.886;2023-08-06T01:45:47;4.72;;;3.20;;
60700;SDS011;46541;49.894;10.886;2023-08-06T01:48:14;5.75;;;3.38;;
60700;SDS011;46541;49.894;10.886;2023-08-06T01:50:41;4.88;;;3.35;;
60700;SDS011;46541;49.894;10.886;2023-08-06T01:53:08;5.25;;;3.22;;
60700;SDS011;46541;49.894;10.886;2023-08-06T01:55:35;8.48;;;3.35;;
60700;SDS011;46541;49.894;10.886;2023-08-06T01:58:02;4.15;;;3.03;;
60700;SDS011;46541;49.894;10.886;2023-08-06T02:00:28;5.05;;;3.13;;
60700;SDS011;46541;49.894;10.886;2023-08-06T02:02:55;3.50;;;2.85;;
60700;SDS011;46541;49.894;10.886;2023-08-06T02:05:22;4.63;;;3.03;;
60700;SDS011;46541;49.894;10.886;2023-08-06T02:07:49;5.20;;;3.10;;
60700;SDS011;46541;49.894;10.886;2023-08-06T02:10:15;4.82;;;3.50;;
60700;SDS011;46541;49.894;10.886;2023-08-06T02:12:42;5.07;;;3.15;;
60700;SDS011;46541;49.894;10.886;2023-08-06T02:15:09;4.13;;;2.83;;
60700;SDS011;46541;49.894;10.886;2023-08-06T02:17:36;6.20;;;2.97;;
60700;SDS011;46541;49.894;10.886;2023-08-06T02:20:03;2.97;;;2.67;;
60700;SDS011;46541;49.894;10.886;2023-08-06T02:22:30;5.00;;;2.63;;
60700;SDS011;46541;49.894;10.886;2023-08-06T02:24:57;4.03;;;3.15;;
60700;SDS011;46541;49.894;10.886;2023-08-06T02:27:24;4.57;;;2.95;;
60700;SDS011;46541;49.894;10.886;2023-08-06T02:29:51;5.22;;;3.17;;
60700;SDS011;46541;49.894;10.886;2023-08-06T02:32:17;3.40;;;3.10;;
60700;SDS011;46541;49.894;10.886;2023-08-06T02:34:44;2.78;;;2.50;;
60700;SDS011;46541;49.894;10.886;2023-08-06T02:37:11;3.58;;;3.05;;
60700;SDS011;46541;49.894;10.886;2023-08-06T02:39:38;4.28;;;3.05;;
60700;SDS011;46541;49.894;10.886;2023-08-06T02:42:06;3.67;;;2.63;;
60700;SDS011;46541;49.894;10.886;2023-08-06T02:44:34;4.55;;;2.85;;
60700;SDS011;46541;49.894;10.886;2023-08-06T02:47:01;4.00;;;2.88;;
60700;SDS011;46541;49.894;10.886;2023-08-06T02:49:28;3.83;;;2.58;;
60700;SDS011;46541;49.894;10.886;2023-08-06T02:51:54;5.63;;;3.20;;
60700;SDS011;46541;49.894;10.886;2023-08-06T02:54:21;5.53;;;3.25;;
60700;SDS011;46541;49.894;10.886;2023-08-06T02:56:48;4.82;;;3.30;;
60700;SDS011;46541;49.894;10.886;2023-08-06T02:59:15;4.72;;;2.58;;
60700;SDS011;46541;49.894;10.886;2023-08-06T03:01:41;4.82;;;2.90;;
60700;SDS011;46541;49.894;10.886;2023-08-06T03:04:09;3.33;;;3.00;;
60700;SDS011;46541;49.894;10.886;2023-08-06T03:06:35;4.90;;;3.35;;
60700;SDS011;46541;49.894;10.886;2023-08-06T03:09:03;4.28;;;3.13;;
60700;SDS011;46541;49.894;10.886;2023-08-06T03:11:29;5.82;;;3.80;;
60700;SDS011;46541;49.894;10.886;2023-08-06T03:13:56;4.15;;;2.95;;
60700;SDS011;46541;49.894;10.886;2023-08-06T03:16:23;3.08;;;2.78;;
60700;SDS011;46541;49.894;10.886;2023-08-06T03:18:50;3.67;;;2.50;;
60700;SDS011;46541;49.894;10.886;2023-08-06T03:21:17;3.78;;;2.67;;
60700;SDS011;46541;49.894;10.886;2023-08-06T03:23:46;5.22;;;2.80;;
60700;SDS011;46541;49.894;10.886;2023-08-06T03:26:13;4.82;;;3.40;;
60700;SDS011;46541;49.894;10.886;2023-08-06T03:28:40;5.05;;;3.40;;
60700;SDS011;46541;49.894;10.886;2023-08-06T03:31:07;5.25;;;3.72;;
60700;SDS011;46541;49.894;10.886;2023-08-06T03:33:34;4.10;;;3.50;;
60700;SDS011;46541;49.894;10.886;2023-08-06T03:36:01;4.50;;;3.60;;
60700;SDS011;46541;49.894;10.886;2023-08-06T03:38:28;5.35;;;3.38;;
60700;SDS011;46541;49.894;10.886;2023-08-06T03:40:54;6.05;;;3.25;;
60700;SDS011;46541;49.894;10.886;2023-08-06T03:43:21;6.32;;;3.80;;
60700;SDS011;46541;49.894;10.886;2023-08-06T03:45:48;5.45;;;3.00;;
60700;SDS011;46541;49.894;10.886;2023-08-06T03:48:15;5.32;;;3.17;;
60700;SDS011;46541;49.894;10.886;2023-08-06T03:50:42;5.97;;;3.42;;
60700;SDS011;46541;49.894;10.886;2023-08-06T03:53:08;4.18;;;3.35;;
60700;SDS011;46541;49.894;10.886;2023-08-06T03:55:35;6.13;;;3.15;;
60700;SDS011;46541;49.894;10.886;2023-08-06T03:58:02;4.03;;;2.85;;
60700;SDS011;46541;49.894;10.886;2023-08-06T04:00:29;5.47;;;3.03;;
60700;SDS011;46541;49.894;10.886;2023-08-06T04:02:55;6.22;;;3.00;;
60700;SDS011;46541;49.894;10.886;2023-08-06T04:05:22;6.93;;;2.72;;
60700;SDS011;46541;49.894;10.886;2023-08-06T04:07:49;3.70;;;3.08;;
60700;SDS011;46541;49.894;10.886;2023-08-06T04:10:16;3.40;;;2.65;;
60700;SDS011;46541;49.894;10.886;2023-08-06T04:12:43;2.83;;;2.25;;
60700;SDS011;46541;49.894;10.886;2023-08-06T04:15:09;4.28;;;2.45;;
60700;SDS011;46541;49.894;10.886;2023-08-06T04:17:36;2.85;;;2.30;;
60700;SDS011;46541;49.894;10.886;2023-08-06T04:20:03;5.20;;;2.40;;
60700;SDS011;46541;49.894;10.886;2023-08-06T04:22:30;3.13;;;2.22;;
60700;SDS011;46541;49.894;10.886;2023-08-06T04:24:57;2.67;;;2.05;;
60700;SDS011;46541;49.894;10.886;2023-08-06T04:27:24;4.22;;;2.70;;
60700;SDS011;46541;49.894;10.886;2023-08-06T04:29:51;4.15;;;2.53;;
60700;SDS011;46541;49.894;10.886;2023-08-06T04:32:18;2.85;;;2.55;;
60700;SDS011;46541;49.894;10.886;2023-08-06T04:34:45;5.90;;;2.13;;
60700;SDS011;46541;49.894;10.886;2023-08-06T04:37:13;3.55;;;2.03;;
60700;SDS011;46541;49.894;10.886;2023-08-06T04:39:39;4.70;;;2.63;;
60700;SDS011;46541;49.894;10.886;2023-08-06T04:42:06;3.45;;;2.30;;
60700;SDS011;46541;49.894;10.886;2023-08-06T04:44:33;3.08;;;2.35;;
60700;SDS011;46541;49.894;10.886;2023-08-06T04:47:00;3.83;;;2.35;;
60700;SDS011;46541;49.894;10.886;2023-08-06T04:49:26;3.42;;;2.40;;
60700;SDS011;46541;49.894;10.886;2023-08-06T04:51:53;7.75;;;2.42;;
60700;SDS011;46541;49.894;10.886;2023-08-06T04:54:20;3.90;;;2.38;;
60700;SDS011;46541;49.894;10.886;2023-08-06T04:56:47;3.78;;;2.30;;
60700;SDS011;46541;49.894;10.886;2023-08-06T04:59:14;3.90;;;2.88;;
60700;SDS011;46541;49.894;10.886;2023-08-06T05:01:41;4.13;;;2.92;;
60700;SDS011;46541;49.894;10.886;2023-08-06T05:04:08;3.35;;;2.63;;
60700;SDS011;46541;49.894;10.886;2023-08-06T05:06:35;3.10;;;2.42;;
60700;SDS011;46541;49.894;10.886;2023-08-06T05:09:04;3.60;;;3.08;;
60700;SDS011;46541;49.894;10.886;2023-08-06T05:11:32;2.45;;;2.20;;
60700;SDS011;46541;49.894;10.886;2023-08-06T05:13:59;3.10;;;2.00;;
60700;SDS011;46541;49.894;10.886;2023-08-06T05:16:25;3.33;;;2.08;;
60700;SDS011;46541;49.894;10.886;2023-08-06T05:18:52;8.00;;;2.17;;
60700;SDS011;46541;49.894;10.886;2023-08-06T05:21:19;2.83;;;1.90;;
60700;SDS011;46541;49.894;10.886;2023-08-06T05:23:46;3.05;;;2.10;;
60700;SDS011;46541;49.894;10.886;2023-08-06T05:26:13;3.42;;;2.10;;
60700;SDS011;46541;49.894;10.886;2023-08-06T05:28:44;2.97;;;1.85;;
60700;SDS011;46541;49.894;10.886;2023-08-06T05:31:12;5.82;;;1.90;;
60700;SDS011;46541;49.894;10.886;2023-08-06T05:33:39;6.70;;;2.30;;
60700;SDS011;46541;49.894;10.886;2023-08-06T05:36:06;4.65;;;1.98;;
60700;SDS011;46541;49.894;10.886;2023-08-06T05:38:32;2.10;;;1.85;;
60700;SDS011;46541;49.894;10.886;2023-08-06T05:40:59;2.15;;;1.92;;
60700;SDS011;46541;49.894;10.886;2023-08-06T05:43:26;2.47;;;1.90;;
60700;SDS011;46541;49.894;10.886;2023-08-06T05:45:53;4.50;;;2.83;;
60700;SDS011;46541;49.894;10.886;2023-08-06T05:48:22;2.88;;;2.38;;
60700;SDS011;46541;49.894;10.886;2023-08-06T05:50:51;3.38;;;1.80;;
60700;SDS011;46541;49.894;10.886;2023-08-06T05:53:18;2.55;;;1.95;;
60700;SDS011;46541;49.894;10.886;2023-08-06T05:55:45;3.05;;;2.03;;
60700;SDS011;46541;49.894;10.886;2023-08-06T05:58:12;2.65;;;2.08;;
60700;SDS011;46541;49.894;10.886;2023-08-06T06:00:38;9.88;;;2.97;;
60700;SDS011;46541;49.894;10.886;2023-08-06T06:03:05;3.70;;;2.15;;
60700;SDS011;46541;49.894;10.886;2023-08-06T06:05:32;3.88;;;1.63;;
60700;SDS011;46541;49.894;10.886;2023-08-06T06:07:59;5.55;;;1.85;;
60700;SDS011;46541;49.894;10.886;2023-08-06T06:10:26;3.20;;;2.10;;
60700;SDS011;46541;49.894;10.886;2023-08-06T06:12:53;4.20;;;2.03;;
60700;SDS011;46541;49.894;10.886;2023-08-06T06:15:20;4.35;;;2.03;;
60700;SDS011;46541;49.894;10.886;2023-08-06T06:17:46;5.28;;;3.08;;
60700;SDS011;46541;49.894;10.886;2023-08-06T06:20:13;8.73;;;4.78;;
60700;SDS011;46541;49.894;10.886;2023-08-06T06:22:40;2.85;;;1.92;;
60700;SDS011;46541;49.894;10.886;2023-08-06T06:25:07;3.92;;;3.38;;
60700;SDS011;46541;49.894;10.886;2023-08-06T06:27:34;2.20;;;1.70;;
60700;SDS011;46541;49.894;10.886;2023-08-06T06:30:01;4.40;;;2.60;;
60700;SDS011;46541;49.894;10.886;2023-08-06T06:32:28;2.90;;;2.22;;
60700;SDS011;46541;49.894;10.886;2023-08-06T06:34:55;3.92;;;2.30;;
60700;SDS011;46541;49.894;10.886;2023-08-06T06:37:22;4.15;;;1.80;;
60700;SDS011;46541;49.894;10.886;2023-08-06T06:39:49;5.50;;;2.20;;
60700;SDS011;46541;49.894;10.886;2023-08-06T06:42:16;6.72;;;2.03;;
60700;SDS011;46541;49.894;10.886;2023-08-06T06:44:42;1.98;;;1.88;;
60700;SDS011;46541;49.894;10.886;2023-08-06T06:47:09;3.15;;;2.17;;
60700;SDS011;46541;49.894;10.886;2023-08-06T06:49:36;2.67;;;1.98;;
60700;SDS011;46541;49.894;10.886;2023-08-06T06:52:03;3.88;;;2.10;;
60700;SDS011;46541;49.894;10.886;2023-08-06T06:54:30;3.70;;;1.98;;
60700;SDS011;46541;49.894;10.886;2023-08-06T06:56:56;3.80;;;2.20;;
60700;SDS011;46541;49.894;10.886;2023-08-06T06:59:23;4.72;;;2.40;;
60700;SDS011;46541;49.894;10.886;2023-08-06T07:01:50;3.03;;;2.00;;
60700;SDS011;46541;49.894;10.886;2023-08-06T07:04:17;4.53;;;2.08;;
60700;SDS011;46541;49.894;10.886;2023-08-06T07:06:45;4.15;;;2.00;;
60700;SDS011;46541;49.894;10.886;2023-08-06T07:09:12;2.45;;;2.05;;
60700;SDS011;46541;49.894;10.886;2023-08-06T07:11:38;4.93;;;2.35;;
60700;SDS011;46541;49.894;10.886;2023-08-06T07:14:05;2.00;;;1.90;;
60700;SDS011;46541;49.894;10.886;2023-08-06T07:16:34;2.88;;;2.42;;
60700;SDS011;46541;49.894;10.886;2023-08-06T07:19:01;3.60;;;2.45;;
60700;SDS011;46541;49.894;10.886;2023-08-06T07:21:27;4.70;;;2.38;;
60700;SDS011;46541;49.894;10.886;2023-08-06T07:23:54;3.22;;;2.42;;
60700;SDS011;46541;49.894;10.886;2023-08-06T07:26:21;2.28;;;1.70;;
60700;SDS011;46541;49.894;10.886;2023-08-06T07:28:48;13.45;;;9.32;;
60700;SDS011;46541;49.894;10.886;2023-08-06T07:31:16;13.55;;;10.43;;
60700;SDS011;46541;49.894;10.886;2023-08-06T07:33:42;7.75;;;3.05;;
60700;SDS011;46541;49.894;10.886;2023-08-06T07:36:10;2.22;;;1.85;;
60700;SDS011;46541;49.894;10.886;2023-08-06T07:38:38;1.85;;;1.63;;
60700;SDS011;46541;49.894;10.886;2023-08-06T07:41:05;6.15;;;2.55;;
60700;SDS011;46541;49.894;10.886;2023-08-06T07:43:32;2.53;;;1.80;;
60700;SDS011;46541;49.894;10.886;2023-08-06T07:45:59;3.80;;;2.47;;
60700;SDS011;46541;49.894;10.886;2023-08-06T07:48:27;3.58;;;2.10;;
60700;SDS011;46541;49.894;10.886;2023-08-06T07:50:54;4.57;;;1.98;;
60700;SDS011;46541;49.894;10.886;2023-08-06T07:53:21;3.25;;;1.83;;
60700;SDS011;46541;49.894;10.886;2023-08-06T07:55:52;4.13;;;1.92;;
60700;SDS011;46541;49.894;10.886;2023-08-06T07:58:20;5.10;;;1.77;;
60700;SDS011;46541;49.894;10.886;2023-08-06T08:00:47;3.65;;;2.20;;
60700;SDS011;46541;49.894;10.886;2023-08-06T08:03:14;4.57;;;2.03;;
60700;SDS011;46541;49.894;10.886;2023-08-06T08:05:42;5.38;;;1.77;;
60700;SDS011;46541;49.894;10.886;2023-08-06T08:08:10;3.08;;;1.73;;
60700;SDS011;46541;49.894;10.886;2023-08-06T08:10:37;10.75;;;6.20;;
60700;SDS011;46541;49.894;10.886;2023-08-06T08:13:05;11.35;;;5.43;;
60700;SDS011;46541;49.894;10.886;2023-08-06T08:15:32;5.95;;;3.33;;
60700;SDS011;46541;49.894;10.886;2023-08-06T08:18:00;5.35;;;3.28;;
60700;SDS011;46541;49.894;10.886;2023-08-06T08:20:26;6.13;;;2.60;;
60700;SDS011;46541;49.894;10.886;2023-08-06T08:22:58;5.57;;;3.13;;
60700;SDS011;46541;49.894;10.886;2023-08-06T08:25:26;6.05;;;2.40;;
60700;SDS011;46541;49.894;10.886;2023-08-06T08:27:56;5.75;;;2.70;;
60700;SDS011;46541;49.894;10.886;2023-08-06T08:30:24;2.30;;;1.85;;
60700;SDS011;46541;49.894;10.886;2023-08-06T08:32:51;4.95;;;2.03;;
60700;SDS011;46541;49.894;10.886;2023-08-06T08:35:18;4.28;;;1.75;;
60700;SDS011;46541;49.894;10.886;2023-08-06T08:37:45;5.47;;;1.80;;
60700;SDS011;46541;49.894;10.886;2023-08-06T08:40:13;1.77;;;1.17;;
60700;SDS011;46541;49.894;10.886;2023-08-06T08:42:41;1.10;;;1.00;;
60700;SDS011;46541;49.894;10.886;2023-08-06T08:45:12;1.42;;;1.05;;
60700;SDS011;46541;49.894;10.886;2023-08-06T08:47:41;1.77;;;1.00;;
60700;SDS011;46541;49.894;10.886;2023-08-06T08:50:13;2.47;;;1.35;;
60700;SDS011;46541;49.894;10.886;2023-08-06T08:52:41;1.45;;;1.35;;
60700;SDS011;46541;49.894;10.886;2023-08-06T08:55:11;6.40;;;0.93;;
60700;SDS011;46541;49.894;10.886;2023-08-06T08:57:40;2.33;;;0.68;;
60700;SDS011;46541;49.894;10.886;2023-08-06T09:00:07;1.90;;;1.00;;
60700;SDS011;46541;49.894;10.886;2023-08-06T09:02:34;2.10;;;0.90;;
60700;SDS011;46541;49.894;10.886;2023-08-06T09:05:02;1.88;;;0.63;;
60700;SDS011;46541;49.894;10.886;2023-08-06T09:07:45;3.90;;;0.70;;
60700;SDS011;46541;49.894;10.886;2023-08-06T09:10:16;0.75;;;0.55;;
60700;SDS011;46541;49.894;10.886;2023-08-06T09:12:47;1.25;;;0.60;;
60700;SDS011;46541;49.894;10.886;2023-08-06T09:15:16;2.92;;;0.68;;
60700;SDS011;46541;49.894;10.886;2023-08-06T09:17:44;1.08;;;0.30;;
60700;SDS011;46541;49.894;10.886;2023-08-06T09:20:11;1.30;;;0.50;;
60700;SDS011;46541;49.894;10.886;2023-08-06T09:22:38;0.82;;;0.52;;
60700;SDS011;46541;49.894;10.886;2023-08-06T09:25:06;1.52;;;0.50;;
60700;SDS011;46541;49.894;10.886;2023-08-06T09:27:36;0.85;;;0.50;;
60700;SDS011;46541;49.894;10.886;2023-08-06T09:30:04;1.02;;;0.47;;
60700;SDS011;46541;49.894;10.886;2023-08-06T09:32:44;4.25;;;0.93;;
60700;SDS011;46541;49.894;10.886;2023-08-06T09:35:16;2.63;;;0.50;;
60700;SDS011;46541;49.894;10.886;2023-08-06T09:37:46;2.28;;;0.60;;
60700;SDS011;46541;49.894;10.886;2023-08-06T09:40:30;1.83;;;0.70;;
60700;SDS011;46541;49.894;10.886;2023-08-06T09:42:58;0.40;;;0.40;;
60700;SDS011;46541;49.894;10.886;2023-08-06T09:45:31;0.70;;;0.30;;
60700;SDS011;46541;49.894;10.886;2023-08-06T09:48:04;0.63;;;0.45;;
60700;SDS011;46541;49.894;10.886;2023-08-06T09:50:33;0.75;;;0.20;;
60700;SDS011;46541;49.894;10.886;2023-08-06T09:53:06;1.45;;;0.40;;
60700;SDS011;46541;49.894;10.886;2023-08-06T09:55:34;1.58;;;0.40;;
60700;SDS011;46541;49.894;10.886;2023-08-06T09:58:01;1.23;;;0.80;;
60700;SDS011;46541;49.894;10.886;2023-08-06T10:00:28;1.05;;;0.55;;
60700;SDS011;46541;49.894;10.886;2023-08-06T10:02:59;0.40;;;0.40;;
60700;SDS011;46541;49.894;10.886;2023-08-06T10:05:27;7.50;;;4.65;;
60700;SDS011;46541;49.894;10.886;2023-08-06T10:07:53;2.58;;;1.15;;
60700;SDS011;46541;49.894;10.886;2023-08-06T10:10:23;1.88;;;0.98;;
60700;SDS011;46541;49.894;10.886;2023-08-06T10:12:51;0.70;;;0.63;;
60700;SDS011;46541;49.894;10.886;2023-08-06T10:15:23;2.92;;;0.60;;
60700;SDS011;46541;49.894;10.886;2023-08-06T10:17:53;0.60;;;0.30;;
60700;SDS011;46541;49.894;10.886;2023-08-06T10:20:23;0.55;;;0.30;;
60700;SDS011;46541;49.894;10.886;2023-08-06T10:23:00;2.05;;;1.13;;
60700;SDS011;46541;49.894;10.886;2023-08-06T10:25:31;1.13;;;0.70;;
60700;SDS011;46541;49.894;10.886;2023-08-06T10:28:08;0.50;;;0.40;;
60700;SDS011;46541;49.894;10.886;2023-08-06T10:30:42;0.45;;;0.45;;
60700;SDS011;46541;49.894;10.886;2023-08-06T10:33:13;0.93;;;0.73;;
60700;SDS011;46541;49.894;10.886;2023-08-06T10:35:40;5.03;;;4.00;;
60700;SDS011;46541;49.894;10.886;2023-08-06T10:38:15;1.10;;;0.73;;
60700;SDS011;46541;49.894;10.886;2023-08-06T10:43:25;0.77;;;0.75;;
60700;SDS011;46541;49.894;10.886;2023-08-06T10:45:58;0.80;;;0.70;;
60700;SDS011;46541;49.894;10.886;2023-08-06T10:48:34;1.48;;;0.50;;
60700;SDS011;46541;49.894;10.886;2023-08-06T10:51:02;0.73;;;0.60;;
60700;SDS011;46541;49.894;10.886;2023-08-06T10:53:30;0.82;;;0.57;;
60700;SDS011;46541;49.894;10.886;2023-08-06T10:56:00;0.77;;;0.77;;
60700;SDS011;46541;49.894;10.886;2023-08-06T10:58:40;2.80;;;0.50;;
60700;SDS011;46541;49.894;10.886;2023-08-06T11:01:08;0.70;;;0.35;;
60700;SDS011;46541;49.894;10.886;2023-08-06T11:03:35;0.93;;;0.50;;
60700;SDS011;46541;49.894;10.886;2023-08-06T11:06:09;2.03;;;1.65;;
60700;SDS011;46541;49.894;10.886;2023-08-06T11:08:37;0.73;;;0.40;;
60700;SDS011;46541;49.894;10.886;2023-08-06T11:11:10;1.10;;;0.43;;
60700;SDS011;46541;49.894;10.886;2023-08-06T11:13:39;1.13;;;0.60;;
60700;SDS011;46541;49.894;10.886;2023-08-06T11:16:07;0.28;;;0.28;;
60700;SDS011;46541;49.894;10.886;2023-08-06T11:18:35;0.57;;;0.40;;
60700;SDS011;46541;49.894;10.886;2023-08-06T11:21:02;0.50;;;0.50;;
60700;SDS011;46541;49.894;10.886;2023-08-06T11:23:29;1.13;;;0.80;;
60700;SDS011;46541;49.894;10.886;2023-08-06T11:25:56;0.52;;;0.40;;
60700;SDS011;46541;49.894;10.886;2023-08-06T11:28:23;0.77;;;0.43;;
60700;SDS011;46541;49.894;10.886;2023-08-06T11:30:51;0.60;;;0.60;;
60700;SDS011;46541;49.894;10.886;2023-08-06T11:33:21;0.50;;;0.30;;
60700;SDS011;46541;49.894;10.886;2023-08-06T11:35:52;0.98;;;0.45;;
60700;SDS011;46541;49.894;10.886;2023-08-06T11:38:20;1.10;;;0.40;;
60700;SDS011;46541;49.894;10.886;2023-08-06T11:40:47;0.95;;;0.80;;
60700;SDS011;46541;49.894;10.886;2023-08-06T11:43:14;1.05;;;0.93;;
60700;SDS011;46541;49.894;10.886;2023-08-06T11:45:41;0.88;;;0.60;;
60700;SDS011;46541;49.894;10.886;2023-08-06T11:48:08;1.50;;;1.10;;
60700;SDS011;46541;49.894;10.886;2023-08-06T11:50:38;0.68;;;0.60;;
60700;SDS011;46541;49.894;10.886;2023-08-06T11:53:05;1.23;;;1.00;;
60700;SDS011;46541;49.894;10.886;2023-08-06T11:55:32;0.63;;;0.63;;
60700;SDS011;46541;49.894;10.886;2023-08-06T11:58:02;2.15;;;0.40;;
60700;SDS011;46541;49.894;10.886;2023-08-06T12:00:32;1.33;;;0.88;;
60700;SDS011;46541;49.894;10.886;2023-08-06T12:02:59;0.85;;;0.77;;
60700;SDS011;46541;49.894;10.886;2023-08-06T12:05:30;1.35;;;0.77;;
60700;SDS011;46541;49.894;10.886;2023-08-06T12:08:00;0.52;;;0.38;;
60700;SDS011;46541;49.894;10.886;2023-08-06T12:10:28;0.65;;;0.65;;
60700;SDS011;46541;49.894;10.886;2023-08-06T12:12:58;0.90;;;0.80;;
60700;SDS011;46541;49.894;10.886;2023-08-06T12:15:24;2.08;;;0.30;;
60700;SDS011;46541;49.894;10.886;2023-08-06T12:17:51;0.73;;;0.60;;
60700;SDS011;46541;49.894;10.886;2023-08-06T12:20:18;1.20;;;0.50;;
60700;SDS011;46541;49.894;10.886;2023-08-06T12:22:45;0.68;;;0.50;;
60700;SDS011;46541;49.894;10.886;2023-08-06T12:25:12;0.40;;;0.40;;
60700;SDS011;46541;49.894;10.886;2023-08-06T12:27:43;0.80;;;0.60;;
60700;SDS011;46541;49.894;10.886;2023-08-06T12:30:11;2.08;;;1.75;;
60700;SDS011;46541;49.894;10.886;2023-08-06T12:32:39;0.60;;;0.30;;
60700;SDS011;46541;49.894;10.886;2023-08-06T12:35:06;0.45;;;0.35;;
60700;SDS011;46541;49.894;10.886;2023-08-06T12:37:34;0.30;;;0.30;;
60700;SDS011;46541;49.894;10.886;2023-08-06T12:40:01;0.35;;;0.32;;
60700;SDS011;46541;49.894;10.886;2023-08-06T12:42:45;1.27;;;0.40;;
60700;SDS011;46541;49.894;10.886;2023-08-06T12:45:12;0.45;;;0.38;;
60700;SDS011;46541;49.894;10.886;2023-08-06T12:47:39;0.40;;;0.30;;
60700;SDS011;46541;49.894;10.886;2023-08-06T12:50:06;0.20;;;0.20;;
60700;SDS011;46541;49.894;10.886;2023-08-06T12:52:34;1.42;;;0.40;;
60700;SDS011;46541;49.894;10.886;2023-08-06T12:55:03;0.17;;;0.17;;
60700;SDS011;46541;49.894;10.886;2023-08-06T12:57:30;0.25;;;0.25;;
60700;SDS011;46541;49.894;10.886;2023-08-06T13:00:17;0.20;;;0.20;;
60700;SDS011;46541;49.894;10.886;2023-08-06T13:02:43;0.13;;;0.13;;
60700;SDS011;46541;49.894;10.886;2023-08-06T13:05:10;1.25;;;0.17;;
60700;SDS011;46541;49.894;10.886;2023-08-06T13:07:37;1.85;;;0.20;;
60700;SDS011;46541;49.894;10.886;2023-08-06T13:10:04;0.20;;;0.20;;
60700;SDS011;46541;49.894;10.886;2023-08-06T13:12:31;0.03;;;0.03;;
60700;SDS011;46541;49.894;10.886;2023-08-06T13:14:58;0.52;;;0.20;;
60700;SDS011;46541;49.894;10.886;2023-08-06T13:17:25;1.85;;;0.17;;
60700;SDS011;46541;49.894;10.886;2023-08-06T13:19:53;0.20;;;0.20;;
60700;SDS011;46541;49.894;10.886;2023-08-06T13:22:20;0.65;;;0.10;;
60700;SDS011;46541;49.894;10.886;2023-08-06T13:24:47;0.57;;;0.20;;
60700;SDS011;46541;49.894;10.886;2023-08-06T13:27:13;0.20;;;0.10;;
60700;SDS011;46541;49.894;10.886;2023-08-06T13:29:40;0.43;;;0.22;;
60700;SDS011;46541;49.894;10.886;2023-08-06T13:32:07;0.38;;;0.30;;
60700;SDS011;46541;49.894;10.886;2023-08-06T13:34:34;0.63;;;0.38;;
60700;SDS011;46541;49.894;10.886;2023-08-06T13:37:00;0.30;;;0.20;;
60700;SDS011;46541;49.894;10.886;2023-08-06T13:39:28;0.63;;;0.10;;
60700;SDS011;46541;49.894;10.886;2023-08-06T13:41:55;0.20;;;0.20;;
60700;SDS011;46541;49.894;10.886;2023-08-06T13:44:22;0.65;;;0.20;;
60700;SDS011;46541;49.894;10.886;2023-08-06T13:46:48;0.52;;;0.20;;
60700;SDS011;46541;49.894;10.886;2023-08-06T13:49:15;0.50;;;0.30;;
60700;SDS011;46541;49.894;10.886;2023-08-06T13:51:42;0.25;;;0.10;;
60700;SDS011;46541;49.894;10.886;2023-08-06T13:54:09;0.20;;;0.20;;
60700;SDS011;46541;49.894;10.886;2023-08-06T13:56:35;0.43;;;0.20;;
60700;SDS011;46541;49.894;10.886;2023-08-06T13:59:04;0.85;;;0.40;;
60700;SDS011;46541;49.894;10.886;2023-08-06T14:01:30;0.45;;;0.20;;
60700;SDS011;46541;49.894;10.886;2023-08-06T14:04:14;0.73;;;0.20;;
60700;SDS011;46541;49.894;10.886;2023-08-06T14:06:41;2.30;;;0.82;;
60700;SDS011;46541;49.894;10.886;2023-08-06T14:09:08;0.30;;;0.20;;
60700;SDS011;46541;49.894;10.886;2023-08-06T14:11:37;0.77;;;0.30;;
60700;SDS011;46541;49.894;10.886;2023-08-06T14:14:04;0.30;;;0.30;;
60700;SDS011;46541;49.894;10.886;2023-08-06T14:16:31;0.40;;;0.20;;
60700;SDS011;46541;49.894;10.886;2023-08-06T14:18:57;1.08;;;0.32;;
60700;SDS011;46541;49.894;10.886;2023-08-06T14:21:24;0.15;;;0.13;;
60700;SDS011;46541;49.894;10.886;2023-08-06T14:23:51;0.20;;;0.13;;
60700;SDS011;46541;49.894;10.886;2023-08-06T14:26:17;2.85;;;0.22;;
60700;SDS011;46541;49.894;10.886;2023-08-06T14:28:44;1.45;;;0.28;;
60700;SDS011;46541;49.894;10.886;2023-08-06T14:31:11;0.75;;;0.22;;
60700;SDS011;46541;49.894;10.886;2023-08-06T14:33:38;2.50;;;0.38;;
60700;SDS011;46541;49.894;10.886;2023-08-06T14:36:05;0.68;;;0.40;;
60700;SDS011;46541;49.894;10.886;2023-08-06T14:38:32;1.10;;;0.20;;
60700;SDS011;46541;49.894;10.886;2023-08-06T14:41:05;0.20;;;0.10;;
60700;SDS011;46541;49.894;10.886;2023-08-06T14:43:32;0.93;;;0.20;;
60700;SDS011;46541;49.894;10.886;2023-08-06T14:45:59;0.20;;;0.20;;
60700;SDS011;46541;49.894;10.886;2023-08-06T14:48:26;0.43;;;0.20;;
60700;SDS011;46541;49.894;10.886;2023-08-06T14:50:53;0.10;;;0.10;;